Time;durP1;ratioP1;P1;durP2;ratioP2;P2;SDS_P1;SDS_P2;PMS_P1;PMS_P2;Temp;Humidity;BMP_temperature;BMP_pressure;BME280_temperature;BME280_humidity;BME280_pressure;Samples;Min_cycle;Max_cycle;Signal;HPM_P1;HPM_P2
2020/12/18 00:01:25;;;;;;;96.35;22.15;;;;;;;;;;5074340;28;20208;-65
2020/12/18 00:03:52;;;;;;;66.60;20.73;;;;;;;;;;5076236;28;20659;-65
2020/12/18 00:06:23;;;;;;;54.22;21.55;;;;;;;;;;5074206;28;20203;-65
2020/12/18 00:08:51;;;;;;;49.88;21.25;;;;;;;;;;5074047;28;20208;-65
2020/12/18 00:11:21;;;;;;;61.55;22.08;;;;;;;;;;5075086;28;20643;-65
2020/12/18 00:13:48;;;;;;;69.57;21.73;;;;;;;;;;5075142;28;20563;-65
2020/12/18 00:16:15;;;;;;;49.45;22.52;;;;;;;;;;5075547;28;20663;-65
2020/12/18 00:18:41;;;;;;;31.00;19.15;;;;;;;;;;5075695;28;20200;-66
2020/12/18 00:21:20;;;;;;;26.88;18.85;;;;;;;;;;5075269;28;20287;-65
2020/12/18 00:23:47;;;;;;;23.58;17.48;;;;;;;;;;5075230;28;20691;-65
2020/12/18 00:26:14;;;;;;;25.63;18.98;;;;;;;;;;5075227;28;20203;-65
2020/12/18 00:28:43;;;;;;;22.95;17.27;;;;;;;;;;5074884;28;20189;-65
2020/12/18 00:31:10;;;;;;;19.80;17.77;;;;;;;;;;5075178;28;20260;-65
2020/12/18 00:33:36;;;;;;;20.30;18.00;;;;;;;;;;5075043;28;20188;-65
2020/12/18 00:36:05;;;;;;;18.77;16.63;;;;;;;;;;5075164;28;20187;-65
2020/12/18 00:38:32;;;;;;;21.88;17.67;;;;;;;;;;5075010;28;20204;-65
2020/12/18 00:40:58;;;;;;;26.15;19.50;;;;;;;;;;5073370;28;20218;-65
2020/12/18 00:43:25;;;;;;;23.08;18.70;;;;;;;;;;5074285;28;20247;-64
2020/12/18 00:45:54;;;;;;;25.75;19.20;;;;;;;;;;5074174;28;20204;-64
2020/12/18 00:48:21;;;;;;;24.98;18.23;;;;;;;;;;5074613;28;20220;-64
2020/12/18 00:50:50;;;;;;;20.13;16.10;;;;;;;;;;5074299;28;20287;-64
2020/12/18 00:53:17;;;;;;;23.65;16.98;;;;;;;;;;5074928;28;20206;-64
2020/12/18 00:55:45;;;;;;;22.08;17.92;;;;;;;;;;5073337;28;20250;-64
2020/12/18 00:58:14;;;;;;;23.42;17.80;;;;;;;;;;5074706;28;20554;-64
2020/12/18 01:00:42;;;;;;;22.30;16.90;;;;;;;;;;5074329;28;20192;-64
2020/12/18 01:03:09;;;;;;;20.60;17.15;;;;;;;;;;5074313;28;20215;-64
2020/12/18 01:05:36;;;;;;;19.92;16.50;;;;;;;;;;5074457;28;20218;-64
2020/12/18 01:08:04;;;;;;;20.70;16.13;;;;;;;;;;5074123;28;20281;-64
2020/12/18 01:10:36;;;;;;;18.95;16.23;;;;;;;;;;5074213;28;20184;-65
2020/12/18 01:13:03;;;;;;;18.60;15.00;;;;;;;;;;5074845;28;20199;-64
2020/12/18 01:15:36;;;;;;;18.40;15.98;;;;;;;;;;5074244;28;20628;-64
2020/12/18 01:18:03;;;;;;;18.58;15.88;;;;;;;;;;5074314;28;20188;-64
2020/12/18 01:20:29;;;;;;;20.10;15.35;;;;;;;;;;5074209;28;20198;-65
2020/12/18 01:22:56;;;;;;;19.88;16.10;;;;;;;;;;5073796;28;20675;-65
2020/12/18 01:25:23;;;;;;;24.17;16.40;;;;;;;;;;5074333;28;20282;-64
2020/12/18 01:27:49;;;;;;;64.95;25.80;;;;;;;;;;5074014;28;20199;-65
2020/12/18 01:30:16;;;;;;;83.70;24.52;;;;;;;;;;5073887;28;20303;-65
2020/12/18 01:32:43;;;;;;;88.95;17.45;;;;;;;;;;5074091;28;20279;-65
2020/12/18 01:35:10;;;;;;;110.97;17.98;;;;;;;;;;5072578;28;20262;-65
2020/12/18 01:37:36;;;;;;;76.60;18.48;;;;;;;;;;5073799;28;20230;-65
2020/12/18 01:40:03;;;;;;;89.63;20.38;;;;;;;;;;5074000;28;20298;-64
2020/12/18 01:42:30;;;;;;;70.45;19.92;;;;;;;;;;5072571;28;20572;-64
2020/12/18 01:45:03;;;;;;;170.95;20.83;;;;;;;;;;5074298;28;20616;-67
2020/12/18 01:47:31;;;;;;;198.05;22.30;;;;;;;;;;5074103;28;20287;-66
2020/12/18 01:49:58;;;;;;;203.75;22.92;;;;;;;;;;5074174;28;20184;-66
2020/12/18 01:52:25;;;;;;;221.65;24.38;;;;;;;;;;5074083;28;20287;-67
2020/12/18 01:54:58;;;;;;;73.18;19.15;;;;;;;;;;5074062;28;20226;-67
2020/12/18 01:57:26;;;;;;;234.05;23.05;;;;;;;;;;5077689;28;20180;-67
2020/12/18 01:59:56;;;;;;;271.83;23.70;;;;;;;;;;5078416;28;20475;-67
2020/12/18 02:02:23;;;;;;;188.15;20.85;;;;;;;;;;5078420;28;20230;-67
2020/12/18 02:04:49;;;;;;;187.70;20.45;;;;;;;;;;5078003;28;20211;-67
2020/12/18 02:07:19;;;;;;;187.32;21.15;;;;;;;;;;5077934;28;20210;-67
2020/12/18 02:09:46;;;;;;;149.50;19.52;;;;;;;;;;5078049;28;20663;-67
2020/12/18 02:12:15;;;;;;;150.30;19.13;;;;;;;;;;5077898;28;20207;-66
2020/12/18 02:14:42;;;;;;;179.63;19.88;;;;;;;;;;5077812;28;20218;-66
2020/12/18 02:17:09;;;;;;;218.90;23.08;;;;;;;;;;5077284;28;20640;-66
2020/12/18 02:19:36;;;;;;;429.38;32.08;;;;;;;;;;5076822;28;20196;-65
2020/12/18 02:22:15;;;;;;;456.88;30.45;;;;;;;;;;5077819;28;20196;-66
2020/12/18 02:24:49;;;;;;;315.88;25.65;;;;;;;;;;5077538;28;20220;-66
2020/12/18 02:27:23;;;;;;;292.98;26.40;;;;;;;;;;5078156;28;20283;-67
2020/12/18 02:29:51;;;;;;;247.77;21.48;;;;;;;;;;5077369;28;20281;-67
2020/12/18 02:32:18;;;;;;;125.10;15.77;;;;;;;;;;5077381;28;20207;-67
2020/12/18 02:34:46;;;;;;;278.58;19.83;;;;;;;;;;5076517;28;20210;-66
2020/12/18 02:37:13;;;;;;;173.60;18.83;;;;;;;;;;5077005;28;20180;-66
2020/12/18 02:39:42;;;;;;;186.25;18.15;;;;;;;;;;5077978;28;20226;-66
2020/12/18 02:42:09;;;;;;;218.52;17.80;;;;;;;;;;5077666;28;20184;-66
2020/12/18 02:44:36;;;;;;;216.73;18.70;;;;;;;;;;5077284;28;20551;-66
2020/12/18 02:47:02;;;;;;;168.27;17.58;;;;;;;;;;5077191;28;20184;-66
2020/12/18 02:49:30;;;;;;;99.40;14.98;;;;;;;;;;5077062;28;20215;-67
2020/12/18 02:51:57;;;;;;;65.72;14.23;;;;;;;;;;5076959;28;20188;-66
2020/12/18 02:54:23;;;;;;;73.72;14.98;;;;;;;;;;5077336;28;20206;-66
2020/12/18 02:56:52;;;;;;;60.60;15.75;;;;;;;;;;5075805;28;20192;-66
2020/12/18 02:59:23;;;;;;;102.43;17.90;;;;;;;;;;5076735;28;20189;-66
2020/12/18 03:01:49;;;;;;;86.70;18.10;;;;;;;;;;5076765;28;20519;-66
2020/12/18 03:04:16;;;;;;;116.40;24.45;;;;;;;;;;5076741;28;20235;-66
2020/12/18 03:06:43;;;;;;;43.10;13.60;;;;;;;;;;5076345;28;20203;-66
2020/12/18 03:09:10;;;;;;;35.30;14.32;;;;;;;;;;5076302;28;20200;-66
2020/12/18 03:11:40;;;;;;;39.38;12.10;;;;;;;;;;5075194;28;20196;-66
2020/12/18 03:14:07;;;;;;;69.25;13.25;;;;;;;;;;5076092;28;20294;-66
2020/12/18 03:16:37;;;;;;;48.17;14.38;;;;;;;;;;5076721;28;20559;-66
2020/12/18 03:19:04;;;;;;;96.13;14.73;;;;;;;;;;5076848;28;20678;-66
2020/12/18 03:21:31;;;;;;;45.67;13.50;;;;;;;;;;5076098;28;20200;-66
2020/12/18 03:23:59;;;;;;;45.03;11.60;;;;;;;;;;5076666;28;20216;-66
2020/12/18 03:26:25;;;;;;;46.67;12.68;;;;;;;;;;5076572;28;20194;-66
2020/12/18 03:28:52;;;;;;;59.13;12.07;;;;;;;;;;5075136;28;20196;-66
2020/12/18 03:31:20;;;;;;;64.43;14.68;;;;;;;;;;5076372;28;20177;-66
2020/12/18 03:33:46;;;;;;;55.67;14.05;;;;;;;;;;5076078;28;20617;-66
2020/12/18 03:36:13;;;;;;;74.75;13.70;;;;;;;;;;5075984;28;20192;-66
2020/12/18 03:38:40;;;;;;;40.92;13.88;;;;;;;;;;5076390;28;20241;-66
2020/12/18 03:41:08;;;;;;;74.60;13.23;;;;;;;;;;5076241;28;20204;-66
2020/12/18 03:43:35;;;;;;;63.35;13.60;;;;;;;;;;5074757;28;20699;-67
2020/12/18 03:46:04;;;;;;;88.53;15.15;;;;;;;;;;5075972;28;20647;-67
2020/12/18 03:48:31;;;;;;;60.28;13.90;;;;;;;;;;5075756;28;20204;-67
2020/12/18 03:50:58;;;;;;;156.77;18.15;;;;;;;;;;5074592;28;20199;-67
2020/12/18 03:53:24;;;;;;;134.70;17.50;;;;;;;;;;5075603;28;20230;-67
2020/12/18 03:55:51;;;;;;;147.57;17.95;;;;;;;;;;5058089;28;20202;-67
2020/12/18 03:58:17;;;;;;;131.52;16.90;;;;;;;;;;5075908;28;20230;-66
2020/12/18 04:00:46;;;;;;;157.45;19.77;;;;;;;;;;5075664;28;20299;-66
2020/12/18 04:03:13;;;;;;;125.22;17.38;;;;;;;;;;5057814;28;20210;-66
2020/12/18 04:05:42;;;;;;;140.07;18.00;;;;;;;;;;5075373;28;20242;-66
2020/12/18 04:08:08;;;;;;;231.90;22.10;;;;;;;;;;5075631;28;20238;-66
2020/12/18 04:10:35;;;;;;;241.88;22.95;;;;;;;;;;5075477;28;20223;-67
2020/12/18 04:13:02;;;;;;;85.88;18.27;;;;;;;;;;5075176;28;20188;-66
2020/12/18 04:15:28;;;;;;;203.18;24.10;;;;;;;;;;5057447;28;20566;-66
2020/12/18 04:17:55;;;;;;;204.43;20.75;;;;;;;;;;5074997;28;20340;-66
2020/12/18 04:20:23;;;;;;;257.65;22.77;;;;;;;;;;5073459;28;20199;-66
2020/12/18 04:22:50;;;;;;;155.60;22.05;;;;;;;;;;5075220;28;20651;-66
2020/12/18 04:25:18;;;;;;;174.52;20.70;;;;;;;;;;5075184;28;20690;-66
2020/12/18 04:27:45;;;;;;;233.73;21.58;;;;;;;;;;5074942;28;20282;-66
2020/12/18 04:30:13;;;;;;;242.75;22.88;;;;;;;;;;5074661;28;20314;-66
2020/12/18 04:32:41;;;;;;;352.15;26.23;;;;;;;;;;5075092;28;20184;-65
2020/12/18 04:35:08;;;;;;;326.77;24.63;;;;;;;;;;5075030;28;20218;-65
2020/12/18 04:37:34;;;;;;;400.92;27.77;;;;;;;;;;5074756;28;20212;-66
2020/12/18 04:40:04;;;;;;;298.70;27.42;;;;;;;;;;5074860;28;20199;-66
2020/12/18 04:42:32;;;;;;;177.20;21.63;;;;;;;;;;5073472;28;20207;-66
2020/12/18 04:45:01;;;;;;;145.48;20.73;;;;;;;;;;5074775;28;20212;-66
2020/12/18 04:47:28;;;;;;;70.93;17.70;;;;;;;;;;5074635;28;20602;-66
2020/12/18 04:49:57;;;;;;;73.10;18.15;;;;;;;;;;5073180;28;20557;-66
2020/12/18 04:52:29;;;;;;;139.73;18.35;;;;;;;;;;5074441;28;20241;-66
2020/12/18 04:54:59;;;;;;;87.97;17.80;;;;;;;;;;5073072;28;20291;-66
2020/12/18 04:57:28;;;;;;;146.05;18.90;;;;;;;;;;5074668;28;20207;-66
2020/12/18 04:59:55;;;;;;;86.20;15.95;;;;;;;;;;5074229;28;20562;-66
2020/12/18 05:02:23;;;;;;;98.93;16.63;;;;;;;;;;5075181;28;20287;-66
2020/12/18 05:04:52;;;;;;;42.65;13.25;;;;;;;;;;5074681;28;20239;-66
2020/12/18 05:07:19;;;;;;;56.17;13.95;;;;;;;;;;5074806;28;20277;-66
2020/12/18 05:09:51;;;;;;;46.47;13.80;;;;;;;;;;5074213;28;20192;-66
2020/12/18 05:12:20;;;;;;;47.83;13.65;;;;;;;;;;5074395;28;20211;-66
2020/12/18 05:14:50;;;;;;;81.82;18.45;;;;;;;;;;5074196;28;20204;-66
2020/12/18 05:17:17;;;;;;;38.72;14.30;;;;;;;;;;5074243;28;20549;-66
2020/12/18 05:19:45;;;;;;;26.92;13.15;;;;;;;;;;5074011;28;20208;-66
2020/12/18 05:22:12;;;;;;;99.13;15.98;;;;;;;;;;5074492;28;20194;-66
2020/12/18 05:24:40;;;;;;;93.47;16.52;;;;;;;;;;5074385;28;20554;-66
2020/12/18 05:27:07;;;;;;;164.57;17.38;;;;;;;;;;5074649;28;20662;-66
2020/12/18 05:29:36;;;;;;;164.48;18.13;;;;;;;;;;5073857;28;20223;-66
2020/12/18 05:32:03;;;;;;;326.50;20.90;;;;;;;;;;5073858;28;20200;-66
2020/12/18 05:34:30;;;;;;;338.65;25.55;;;;;;;;;;5074033;28;20196;-66
2020/12/18 05:37:01;;;;;;;447.80;27.05;;;;;;;;;;5073183;28;20263;-66
2020/12/18 05:39:28;;;;;;;286.95;22.27;;;;;;;;;;5074434;28;20624;-66
2020/12/18 05:41:56;;;;;;;197.25;21.08;;;;;;;;;;5073821;28;20199;-66
2020/12/18 05:44:25;;;;;;;162.90;21.23;;;;;;;;;;5073984;28;20564;-66
2020/12/18 05:46:52;;;;;;;163.18;21.75;;;;;;;;;;5073926;28;20206;-66
2020/12/18 05:49:48;;;;;;;256.20;22.92;;;;;;;;;;5073964;28;20211;-66
2020/12/18 05:52:21;;;;;;;244.85;21.70;;;;;;;;;;5068994;28;20200;-66
2020/12/18 05:54:47;;;;;;;173.05;19.42;;;;;;;;;;5074080;28;20196;-67
2020/12/18 05:57:15;;;;;;;146.30;16.45;;;;;;;;;;5072809;28;20290;-66
2020/12/18 05:59:43;;;;;;;164.68;18.30;;;;;;;;;;5073991;28;20187;-66
2020/12/18 06:02:14;;;;;;;90.85;16.90;;;;;;;;;;5073831;28;20196;-67
2020/12/18 06:04:43;;;;;;;98.43;14.50;;;;;;;;;;5073667;28;20215;-66
2020/12/18 06:07:09;;;;;;;142.50;15.98;;;;;;;;;;5073864;28;20204;-67
2020/12/18 06:09:40;;;;;;;104.63;16.13;;;;;;;;;;5072732;28;20628;-67
2020/12/18 06:12:11;;;;;;;132.77;18.58;;;;;;;;;;5073837;28;20284;-66
2020/12/18 06:14:39;;;;;;;90.07;17.52;;;;;;;;;;5073471;28;20219;-66
2020/12/18 06:17:07;;;;;;;100.53;19.85;;;;;;;;;;5073736;28;20230;-67
2020/12/18 06:19:38;;;;;;;121.85;20.05;;;;;;;;;;5056384;28;20565;-66
2020/12/18 06:22:06;;;;;;;165.15;20.25;;;;;;;;;;5073467;28;20279;-66
2020/12/18 06:24:36;;;;;;;140.98;22.00;;;;;;;;;;5073262;28;20211;-66
2020/12/18 06:27:03;;;;;;;130.95;25.17;;;;;;;;;;5074228;28;20184;-67
2020/12/18 06:29:29;;;;;;;153.18;21.60;;;;;;;;;;5073426;28;20220;-67
2020/12/18 06:32:16;;;;;;;89.55;19.10;;;;;;;;;;5055841;28;20290;-67
2020/12/18 06:34:42;;;;;;;85.43;19.50;;;;;;;;;;5073269;28;20196;-67
2020/12/18 06:37:34;;;;;;;53.15;16.35;;;;;;;;;;5073162;28;20263;-67
2020/12/18 06:40:04;;;;;;;63.80;16.08;;;;;;;;;;5073519;28;20221;-66
2020/12/18 06:42:31;;;;;;;49.95;16.02;;;;;;;;;;5075621;28;20188;-67
2020/12/18 06:44:59;;;;;;;37.60;15.50;;;;;;;;;;5077030;28;20222;-66
2020/12/18 06:47:28;;;;;;;45.78;15.80;;;;;;;;;;5075846;28;20208;-66
2020/12/18 06:49:58;;;;;;;29.67;16.10;;;;;;;;;;5076993;28;20630;-67
2020/12/18 06:52:42;;;;;;;51.33;17.00;;;;;;;;;;5077247;28;20283;-66
2020/12/18 06:55:25;;;;;;;22.38;13.82;;;;;;;;;;5076910;28;20211;-67
2020/12/18 06:58:07;;;;;;;42.60;18.02;;;;;;;;;;5077372;28;20204;-67
2020/12/18 07:00:35;;;;;;;59.95;21.70;;;;;;;;;;5077482;28;20268;-67
2020/12/18 07:03:05;;;;;;;63.60;27.52;;;;;;;;;;5077165;28;20203;-67
2020/12/18 07:05:31;;;;;;;83.07;33.30;;;;;;;;;;5077347;28;20231;-66
2020/12/18 07:07:59;;;;;;;53.92;26.30;;;;;;;;;;5077383;28;20195;-65
2020/12/18 07:10:26;;;;;;;49.55;21.30;;;;;;;;;;5077539;28;20206;-65
2020/12/18 07:12:56;;;;;;;39.38;21.50;;;;;;;;;;5077396;28;20196;-65
2020/12/18 07:15:43;;;;;;;42.72;21.17;;;;;;;;;;5077279;28;20199;-65
2020/12/18 07:18:29;;;;;;;38.80;21.33;;;;;;;;;;5077285;28;20194;-65
2020/12/18 07:20:59;;;;;;;38.50;19.48;;;;;;;;;;5076177;28;20203;-65
2020/12/18 07:23:26;;;;;;;27.65;16.83;;;;;;;;;;5077343;28;20189;-65
2020/12/18 07:25:57;;;;;;;35.38;19.23;;;;;;;;;;5075641;28;21118;-66
2020/12/18 07:28:24;;;;;;;99.95;23.83;;;;;;;;;;5076425;28;20564;-66
2020/12/18 07:30:55;;;;;;;106.97;23.50;;;;;;;;;;5076328;28;20230;-66
2020/12/18 07:33:24;;;;;;;60.03;26.45;;;;;;;;;;5076141;28;20651;-66
2020/12/18 07:35:54;;;;;;;33.95;17.63;;;;;;;;;;5075992;28;20646;-66
2020/12/18 07:38:22;;;;;;;33.22;19.95;;;;;;;;;;5076327;28;20644;-66
2020/12/18 07:40:53;;;;;;;40.00;23.38;;;;;;;;;;5076047;28;20233;-66
2020/12/18 07:43:25;;;;;;;38.17;20.52;;;;;;;;;;5076025;28;20203;-67
2020/12/18 07:45:55;;;;;;;60.13;27.98;;;;;;;;;;5075976;28;20227;-66
2020/12/18 07:48:26;;;;;;;94.80;26.50;;;;;;;;;;5076072;28;20220;-66
2020/12/18 07:51:07;;;;;;;90.45;23.83;;;;;;;;;;5076258;28;20185;-66
2020/12/18 07:53:35;;;;;;;84.25;20.98;;;;;;;;;;5075833;28;20192;-67
2020/12/18 07:56:18;;;;;;;104.50;22.75;;;;;;;;;;5076331;28;20200;-66
2020/12/18 07:58:46;;;;;;;77.85;21.35;;;;;;;;;;5076815;28;20199;-66
2020/12/18 08:01:14;;;;;;;102.13;20.48;;;;;;;;;;5076539;28;20647;-66
2020/12/18 08:03:43;;;;;;;70.32;23.13;;;;;;;;;;5077640;28;20249;-66
2020/12/18 08:06:14;;;;;;;61.25;18.67;;;;;;;;;;5076182;28;20261;-66
2020/12/18 08:08:50;;;;;;;96.30;24.20;;;;;;;;;;5075767;28;20229;-66
2020/12/18 08:11:20;;;;;;;42.03;18.90;;;;;;;;;;5075440;28;20173;-65
2020/12/18 08:13:48;;;;;;;50.10;18.20;;;;;;;;;;5074708;28;20192;-66
2020/12/18 08:16:21;;;;;;;47.72;15.88;;;;;;;;;;5075731;28;20585;-66
2020/12/18 08:18:58;;;;;;;35.80;17.45;;;;;;;;;;5074465;28;20200;-67
2020/12/18 08:21:26;;;;;;;62.10;17.65;;;;;;;;;;5074973;28;20199;-66
2020/12/18 08:23:55;;;;;;;52.60;16.35;;;;;;;;;;5075469;28;20196;-66
2020/12/18 08:26:23;;;;;;;71.25;13.57;;;;;;;;;;5075184;28;20199;-67
2020/12/18 08:28:52;;;;;;;60.70;14.05;;;;;;;;;;5074959;28;20727;-67
2020/12/18 08:31:19;;;;;;;71.43;13.38;;;;;;;;;;5075723;28;20542;-68
2020/12/18 08:33:53;;;;;;;70.63;13.52;;;;;;;;;;5075759;28;20196;-66
2020/12/18 08:36:20;;;;;;;90.43;14.55;;;;;;;;;;5076014;28;20211;-66
2020/12/18 08:38:59;;;;;;;91.78;15.20;;;;;;;;;;5075481;28;20274;-66
2020/12/18 08:41:26;;;;;;;40.05;13.30;;;;;;;;;;5074571;28;20227;-66
2020/12/18 08:44:05;;;;;;;61.30;15.20;;;;;;;;;;5075057;28;20204;-66
2020/12/18 08:46:34;;;;;;;77.78;14.98;;;;;;;;;;5057170;28;20204;-66
2020/12/18 08:49:15;;;;;;;89.38;14.10;;;;;;;;;;5074838;28;20212;-66
2020/12/18 08:51:43;;;;;;;61.90;13.13;;;;;;;;;;5074878;28;20239;-67
2020/12/18 08:54:29;;;;;;;61.55;13.50;;;;;;;;;;5074996;28;20218;-67
2020/12/18 08:57:11;;;;;;;44.28;11.32;;;;;;;;;;5074987;28;20278;-66
2020/12/18 09:00:15;;;;;;;51.67;12.80;;;;;;;;;;5072013;28;20640;-66
2020/12/18 09:03:04;;;;;;;44.80;11.18;;;;;;;;;;5068826;28;20612;-66
2020/12/18 09:05:38;;;;;;;33.10;12.43;;;;;;;;;;5061364;28;20291;-66
2020/12/18 09:08:08;;;;;;;42.97;11.82;;;;;;;;;;5075265;28;20202;-66
2020/12/18 09:10:43;;;;;;;51.08;10.23;;;;;;;;;;5064650;28;20200;-67
2020/12/18 09:13:12;;;;;;;61.50;11.68;;;;;;;;;;5070612;28;20198;-66
2020/12/18 09:15:39;;;;;;;39.60;10.20;;;;;;;;;;5075690;28;20207;-66
2020/12/18 09:18:09;;;;;;;34.42;10.80;;;;;;;;;;5074330;28;20214;-66
2020/12/18 09:20:37;;;;;;;34.47;13.75;;;;;;;;;;5074662;28;20192;-66
2020/12/18 09:23:09;;;;;;;39.88;14.63;;;;;;;;;;5074334;28;20203;-67
2020/12/18 09:25:36;;;;;;;36.47;15.02;;;;;;;;;;5073818;28;20254;-67
2020/12/18 09:28:10;;;;;;;83.85;18.33;;;;;;;;;;5066224;28;20192;-66
2020/12/18 09:30:38;;;;;;;106.78;18.95;;;;;;;;;;5068338;28;20224;-67
2020/12/18 09:33:11;;;;;;;98.82;16.10;;;;;;;;;;5073901;28;20192;-66
2020/12/18 09:35:40;;;;;;;127.70;17.05;;;;;;;;;;5074395;28;20192;-67
2020/12/18 09:38:07;;;;;;;163.05;19.90;;;;;;;;;;5074349;28;20203;-66
2020/12/18 09:40:33;;;;;;;108.00;15.43;;;;;;;;;;5074225;28;20223;-66
2020/12/18 09:43:00;;;;;;;72.60;15.77;;;;;;;;;;5074205;28;20200;-66
2020/12/18 09:45:29;;;;;;;98.65;15.32;;;;;;;;;;5075238;28;20220;-66
2020/12/18 09:47:57;;;;;;;81.85;14.77;;;;;;;;;;5074712;28;20212;-66
2020/12/18 09:50:24;;;;;;;90.70;14.50;;;;;;;;;;5074072;28;20214;-66
2020/12/18 09:52:53;;;;;;;56.05;15.13;;;;;;;;;;5073161;28;20290;-67
2020/12/18 09:55:20;;;;;;;79.95;17.02;;;;;;;;;;5075135;28;20180;-67
2020/12/18 09:57:46;;;;;;;48.22;15.48;;;;;;;;;;5056665;28;20207;-67
2020/12/18 10:00:13;;;;;;;59.17;17.38;;;;;;;;;;5075372;28;20196;-67
2020/12/18 10:02:40;;;;;;;82.28;14.73;;;;;;;;;;5074616;28;20204;-67
2020/12/18 10:05:06;;;;;;;36.95;12.68;;;;;;;;;;5073019;28;20236;-66
2020/12/18 10:07:33;;;;;;;59.30;14.15;;;;;;;;;;5074809;28;20200;-66
2020/12/18 10:10:01;;;;;;;60.90;14.52;;;;;;;;;;5073939;28;20206;-66
2020/12/18 10:12:29;;;;;;;74.38;15.45;;;;;;;;;;5074464;28;20192;-67
2020/12/18 10:14:56;;;;;;;97.35;15.35;;;;;;;;;;5074244;28;20635;-66
2020/12/18 10:17:23;;;;;;;73.07;14.43;;;;;;;;;;5075825;28;20200;-66
2020/12/18 10:19:51;;;;;;;66.53;14.13;;;;;;;;;;5077782;28;20202;-67
2020/12/18 10:22:18;;;;;;;118.57;15.98;;;;;;;;;;5076543;28;20211;-67
2020/12/18 10:24:45;;;;;;;73.95;16.17;;;;;;;;;;5077801;28;20199;-67
2020/12/18 10:27:12;;;;;;;73.35;17.98;;;;;;;;;;5077991;28;20200;-67
2020/12/18 10:29:40;;;;;;;103.32;17.98;;;;;;;;;;5076843;28;20357;-66
2020/12/18 10:32:08;;;;;;;78.65;15.65;;;;;;;;;;5077729;28;20658;-66
2020/12/18 10:34:37;;;;;;;65.68;16.65;;;;;;;;;;5077669;28;20192;-66
2020/12/18 10:37:04;;;;;;;128.60;13.18;;;;;;;;;;5077969;28;20245;-66
2020/12/18 10:39:31;;;;;;;96.50;13.82;;;;;;;;;;5077914;28;20596;-65
2020/12/18 10:41:59;;;;;;;87.15;12.98;;;;;;;;;;5077292;28;20195;-65
2020/12/18 10:44:26;;;;;;;47.92;9.73;;;;;;;;;;5078480;28;20204;-65
2020/12/18 10:46:53;;;;;;;63.40;10.38;;;;;;;;;;5078150;28;20528;-65
2020/12/18 10:49:19;;;;;;;120.00;11.93;;;;;;;;;;5076942;28;20303;-66
2020/12/18 10:51:46;;;;;;;125.57;11.32;;;;;;;;;;5075374;28;20279;-67
2020/12/18 10:54:13;;;;;;;85.45;10.13;;;;;;;;;;5077115;28;20204;-66
2020/12/18 10:56:44;;;;;;;159.90;15.90;;;;;;;;;;5076881;28;20245;-67
2020/12/18 10:59:11;;;;;;;65.40;11.55;;;;;;;;;;5076930;28;20195;-67
2020/12/18 11:01:38;;;;;;;38.13;10.48;;;;;;;;;;5076790;28;20218;-67
2020/12/18 11:04:06;;;;;;;57.53;9.80;;;;;;;;;;5077876;28;20228;-66
2020/12/18 11:06:37;;;;;;;75.50;9.43;;;;;;;;;;5077017;28;20239;-66
2020/12/18 11:09:04;;;;;;;69.43;10.32;;;;;;;;;;5076910;28;20204;-66
2020/12/18 11:11:31;;;;;;;75.30;10.75;;;;;;;;;;5076964;28;20195;-66
2020/12/18 11:13:58;;;;;;;18.88;9.13;;;;;;;;;;5076395;28;20192;-67
2020/12/18 11:16:25;;;;;;;94.07;14.07;;;;;;;;;;5076403;28;20569;-67
2020/12/18 11:18:51;;;;;;;48.85;13.82;;;;;;;;;;5076400;28;20576;-67
2020/12/18 11:21:18;;;;;;;58.30;10.98;;;;;;;;;;5076582;28;20216;-67
2020/12/18 11:23:45;;;;;;;51.65;9.68;;;;;;;;;;5076550;28;20200;-67
2020/12/18 11:26:12;;;;;;;62.38;10.05;;;;;;;;;;5075088;28;20216;-67
2020/12/18 11:28:39;;;;;;;73.20;11.48;;;;;;;;;;5075918;28;20207;-67
2020/12/18 11:31:08;;;;;;;35.53;11.10;;;;;;;;;;5075655;28;20678;-67
2020/12/18 11:33:35;;;;;;;63.50;14.35;;;;;;;;;;5076205;28;20198;-67
2020/12/18 11:36:07;;;;;;;95.68;13.80;;;;;;;;;;5076107;28;20176;-67
2020/12/18 11:38:33;;;;;;;96.97;12.43;;;;;;;;;;5076352;28;20188;-67
2020/12/18 11:41:03;;;;;;;63.30;11.38;;;;;;;;;;5075926;28;20659;-67
2020/12/18 11:43:29;;;;;;;20.63;11.13;;;;;;;;;;5076031;28;20200;-67
2020/12/18 11:45:56;;;;;;;79.00;13.90;;;;;;;;;;5074721;28;20224;-68
2020/12/18 11:48:24;;;;;;;100.13;15.55;;;;;;;;;;5075749;28;20265;-67
2020/12/18 11:50:51;;;;;;;102.68;14.45;;;;;;;;;;5075847;28;20283;-64
2020/12/18 11:53:17;;;;;;;49.05;14.43;;;;;;;;;;5076399;28;20207;-66
2020/12/18 11:55:44;;;;;;;143.45;14.10;;;;;;;;;;5076665;28;20256;-66
2020/12/18 11:58:11;;;;;;;111.65;15.13;;;;;;;;;;5076423;28;20192;-66
2020/12/18 12:00:37;;;;;;;142.15;14.82;;;;;;;;;;5076798;28;20670;-67
2020/12/18 12:03:04;;;;;;;81.07;13.65;;;;;;;;;;5075282;28;20210;-67
2020/12/18 12:05:35;;;;;;;56.55;12.95;;;;;;;;;;5076196;28;20220;-67
2020/12/18 12:08:02;;;;;;;83.07;13.32;;;;;;;;;;5077274;28;20196;-65
2020/12/18 12:10:30;;;;;;;101.32;13.60;;;;;;;;;;5078387;28;20192;-66
2020/12/18 12:12:58;;;;;;;108.88;13.90;;;;;;;;;;5077494;28;20591;-66
2020/12/18 12:15:27;;;;;;;139.82;13.45;;;;;;;;;;5077094;28;20190;-66
2020/12/18 12:17:54;;;;;;;91.13;13.70;;;;;;;;;;5076810;28;20583;-67
2020/12/18 12:20:21;;;;;;;118.20;14.02;;;;;;;;;;5077260;28;20192;-65
2020/12/18 12:22:50;;;;;;;106.85;12.77;;;;;;;;;;5076082;28;20203;-66
2020/12/18 12:25:17;;;;;;;46.28;12.88;;;;;;;;;;5075427;28;20747;-65
2020/12/18 12:27:45;;;;;;;70.20;13.18;;;;;;;;;;5075548;28;20198;-65
2020/12/18 12:30:13;;;;;;;34.33;12.77;;;;;;;;;;5076509;28;20227;-66
2020/12/18 12:32:40;;;;;;;173.07;15.52;;;;;;;;;;5075195;28;20200;-66
2020/12/18 12:35:07;;;;;;;90.00;15.70;;;;;;;;;;5074617;28;20195;-66
2020/12/18 12:37:36;;;;;;;162.52;16.35;;;;;;;;;;5074375;28;20253;-67
2020/12/18 12:40:03;;;;;;;228.55;20.92;;;;;;;;;;5073409;28;20567;-67
2020/12/18 12:42:36;;;;;;;38.45;11.10;;;;;;;;;;5073819;28;20241;-67
2020/12/18 12:45:03;;;;;;;42.92;13.57;;;;;;;;;;5074690;28;20228;-67
2020/12/18 12:47:30;;;;;;;102.50;18.10;;;;;;;;;;5074619;28;20198;-67
2020/12/18 12:49:56;;;;;;;63.85;15.25;;;;;;;;;;5075017;28;20192;-67
2020/12/18 12:52:24;;;;;;;133.98;15.55;;;;;;;;;;5075221;28;20200;-68
2020/12/18 12:54:51;;;;;;;215.95;18.23;;;;;;;;;;5075119;28;20199;-66
2020/12/18 12:57:21;;;;;;;146.93;16.15;;;;;;;;;;5074391;28;20250;-66
2020/12/18 12:59:48;;;;;;;41.15;15.18;;;;;;;;;;5074691;28;20196;-66
2020/12/18 13:02:14;;;;;;;105.90;16.83;;;;;;;;;;5074733;28;20212;-66
2020/12/18 13:04:41;;;;;;;133.18;18.05;;;;;;;;;;5074777;28;20202;-66
2020/12/18 13:07:08;;;;;;;75.72;15.88;;;;;;;;;;5072867;28;20248;-66
2020/12/18 13:09:37;;;;;;;59.42;16.23;;;;;;;;;;5074594;28;20188;-66
2020/12/18 13:12:07;;;;;;;86.40;17.17;;;;;;;;;;5073139;28;20204;-66
2020/12/18 13:14:34;;;;;;;97.47;17.40;;;;;;;;;;5074590;28;20235;-65
2020/12/18 13:17:01;;;;;;;77.95;17.15;;;;;;;;;;5074987;28;20188;-66
2020/12/18 13:19:28;;;;;;;79.72;19.13;;;;;;;;;;5074236;28;20191;-66
2020/12/18 13:21:54;;;;;;;45.45;19.63;;;;;;;;;;5073978;28;20192;-65
2020/12/18 13:24:23;;;;;;;84.82;20.35;;;;;;;;;;5072914;28;20188;-65
2020/12/18 13:26:56;;;;;;;83.65;21.13;;;;;;;;;;5074402;28;20235;-66
2020/12/18 13:29:22;;;;;;;108.85;20.90;;;;;;;;;;5073907;28;20235;-66
2020/12/18 13:31:49;;;;;;;101.53;20.48;;;;;;;;;;5074481;28;20187;-66
2020/12/18 13:34:15;;;;;;;84.95;20.95;;;;;;;;;;5074946;28;20279;-65
2020/12/18 13:36:42;;;;;;;132.30;24.40;;;;;;;;;;5073932;28;20191;-65
2020/12/18 13:39:09;;;;;;;123.25;23.10;;;;;;;;;;5074048;28;20192;-65
2020/12/18 13:41:36;;;;;;;109.60;24.50;;;;;;;;;;5074195;28;20198;-66
2020/12/18 13:44:03;;;;;;;138.80;25.05;;;;;;;;;;5074272;28;20282;-65
2020/12/18 13:46:32;;;;;;;103.20;22.83;;;;;;;;;;5073860;28;20223;-66
2020/12/18 13:48:59;;;;;;;164.45;27.00;;;;;;;;;;5073684;28;20590;-65
2020/12/18 13:51:30;;;;;;;95.72;23.85;;;;;;;;;;5076899;28;20176;-65
2020/12/18 13:53:57;;;;;;;126.63;23.80;;;;;;;;;;5081943;28;20204;-65
2020/12/18 13:56:23;;;;;;;208.15;25.52;;;;;;;;;;5080649;28;20603;-66
2020/12/18 13:58:50;;;;;;;113.10;22.75;;;;;;;;;;5081644;28;20286;-65
2020/12/18 14:01:22;;;;;;;70.43;22.85;;;;;;;;;;5080723;28;20261;-66
2020/12/18 14:03:52;;;;;;;166.35;25.60;;;;;;;;;;5081318;28;20620;-66
2020/12/18 14:06:19;;;;;;;212.82;26.63;;;;;;;;;;5079740;28;20587;-66
2020/12/18 14:08:46;;;;;;;130.73;25.75;;;;;;;;;;5079459;28;20685;-65
2020/12/18 14:11:13;;;;;;;140.63;24.25;;;;;;;;;;5072908;28;20594;-66
2020/12/18 14:13:40;;;;;;;183.45;23.30;;;;;;;;;;5075019;28;20194;-66
2020/12/18 14:16:09;;;;;;;212.70;23.98;;;;;;;;;;5079868;28;20195;-65
2020/12/18 14:18:36;;;;;;;125.90;23.00;;;;;;;;;;5079830;28;20204;-65
2020/12/18 14:21:03;;;;;;;154.95;23.00;;;;;;;;;;5080680;28;20215;-65
2020/12/18 14:23:29;;;;;;;70.95;19.42;;;;;;;;;;5080105;28;20278;-65